Bookmark and Share
Track history (hours):
 

Porosity

More information available from US FCC via Universal Licensing System and Coast Guard Vessel Documentation Center.

Last reported at 2013-Sep-03 17:26 UTC. Time now 2014-Apr-19 02:02 UTC.
Position N 48°49' W 123°34'.
Warning: this ship's position is months out of date.

Length 19 m.

Type: Pleasure craft. MMSI: 367488010.

NotesDate/timePositionNaut miles runAvg speedWind from/ knotsBaromVisibWave heightAir tempDewpointWater temp
2013-Sep-03 17:26N 48°49' W 123°34'8 8.5
2013-Sep-03 16:29N 48°56' W 123°41'5 1.3
2013-Sep-03 12:26N 48°59' W 123°47'0 0.0
2013-Sep-03 08:20N 48°59' W 123°47'2 0.3
2013-Sep-03 00:32N 49°01' W 123°44'8 8.0
2013-Sep-02 23:32N 49°08' W 123°41'9 8.9
2013-Sep-02 22:28N 49°17' W 123°48'8 9.2
2013-Sep-02 21:33N 49°23' W 123°56'9 9.0
2013-Sep-02 20:32N 49°31' W 124°05'9 8.5
2013-Sep-02 19:32N 49°37' W 124°13'8 8.3
2013-Sep-02 18:33N 49°43' W 124°22'9 8.3
2013-Sep-02 17:29N 49°48' W 124°32'  
2013-Aug-30 23:30N 49°49' W 124°33'9 9.1
2013-Aug-30 22:33N 49°44' W 124°22'9 8.7
2013-Aug-30 21:33N 49°39' W 124°10'6 5.7
2013-Aug-30 20:32N 49°38' W 124°02'0 0.0
2013-Aug-30 19:32N 49°38' W 124°02'0 0.0
2013-Aug-30 18:32N 49°38' W 124°02'0 0.0
2013-Aug-30 17:32N 49°38' W 124°02'0 0.0
2013-Aug-30 16:32N 49°38' W 124°02'0 0.0
2013-Aug-30 15:32N 49°38' W 124°02'0 0.0
2013-Aug-30 14:32N 49°38' W 124°02'0 0.0
2013-Aug-30 13:32N 49°38' W 124°02'0 0.0
2013-Aug-30 12:32N 49°38' W 124°02'0 0.0
2013-Aug-30 11:32N 49°38' W 124°02'0 0.0
2013-Aug-30 10:26N 49°38' W 124°02'0 0.0
2013-Aug-30 09:32N 49°38' W 124°02'0 0.0
2013-Aug-30 08:32N 49°38' W 124°02'0 0.0
2013-Aug-30 07:32N 49°38' W 124°02'0 0.0
2013-Aug-30 06:14N 49°38' W 124°02'0 0.0
2013-Aug-30 02:32N 49°38' W 124°02'2 2.0
2013-Aug-30 01:33N 49°37' W 124°04'9 9.2
2013-Aug-30 00:33N 49°28' W 124°01'18 8.2
2013-Aug-29 22:23N 49°10' W 123°56'0 0.0
2013-Aug-29 21:29N 49°10' W 123°56'1 1.1
2013-Aug-29 20:30N 49°10' W 123°54'10 8.5
2013-Aug-29 19:22N 49°04' W 123°43'7 8.4
2013-Aug-29 18:30N 48°58' W 123°36'12 8.6
2013-Aug-29 17:03N 48°51' W 123°21'21 8.2
2013-Aug-29 14:31N 48°34' W 123°02'3 2.6
2013-Aug-29 13:32N 48°32' W 123°00'0 0.0
2013-Aug-29 12:32N 48°32' W 123°00'0 0.0
2013-Aug-29 11:32N 48°32' W 123°00'0 0.0
2013-Aug-29 10:32N 48°32' W 123°00'0 0.0
2013-Aug-29 09:32N 48°32' W 123°00'0 0.0
2013-Aug-29 08:32N 48°32' W 123°00'0 0.0
2013-Aug-28 19:32N 48°32' W 123°00'0 0.0
2013-Aug-28 18:32N 48°32' W 123°00'0 0.0
2013-Aug-28 17:32N 48°32' W 123°00'0 0.0
2013-Aug-28 16:32N 48°32' W 123°00'0 0.0
2013-Aug-28 15:32N 48°32' W 123°00'0 0.0
2013-Aug-28 14:32N 48°32' W 123°00'0 0.0
2013-Aug-28 13:32N 48°32' W 123°00'0 0.0
2013-Aug-28 12:32N 48°32' W 123°00'0 0.0
2013-Aug-28 11:32N 48°32' W 123°00'0 0.0
2013-Aug-28 10:32N 48°32' W 123°00'0 0.0
2013-Aug-28 09:32N 48°32' W 123°00'0 0.0
2013-Aug-28 08:32N 48°32' W 123°00'0 0.0
2013-Aug-28 07:32N 48°32' W 123°00'1 0.0
2013-Aug-26 19:33N 48°32' W 122°60'1 0.6
2013-Aug-26 18:33N 48°32' W 123°00'0 0.0
2013-Aug-26 17:33N 48°32' W 123°00'0 0.0
2013-Aug-26 16:33N 48°32' W 123°00'0 0.0
2013-Aug-26 15:33N 48°32' W 123°00'0 0.0
2013-Aug-26 14:33N 48°32' W 123°00'0 0.0
2013-Aug-26 13:33N 48°32' W 123°00'0 0.0
2013-Aug-26 12:33N 48°32' W 123°00'0 0.0
2013-Aug-26 11:33N 48°32' W 123°00'0 0.0
2013-Aug-26 10:33N 48°32' W 123°00'0 0.0
2013-Aug-26 09:33N 48°32' W 123°00'0 0.0
2013-Aug-26 08:33N 48°32' W 123°00'0 0.0
2013-Aug-26 07:33N 48°32' W 123°00'0 0.0
2013-Aug-26 06:33N 48°32' W 123°00'0 0.0
2013-Aug-26 05:33N 48°32' W 123°00'0 0.0
2013-Aug-26 04:33N 48°32' W 123°00'0 0.0
2013-Aug-26 03:27N 48°32' W 123°00'0 0.0
2013-Aug-26 02:33N 48°32' W 123°00'0 0.0
2013-Aug-26 01:27N 48°32' W 123°00'0 0.0
2013-Aug-26 00:33N 48°32' W 123°00'0 0.0
2013-Aug-25 23:33N 48°32' W 123°00'0 0.0
2013-Aug-25 22:33N 48°32' W 123°00'0 0.0
2013-Aug-25 21:27N 48°32' W 123°00'0 0.0
2013-Aug-25 20:33N 48°32' W 123°00'0 0.0
2013-Aug-25 19:33N 48°32' W 123°00'0 0.0
2013-Aug-25 18:21N 48°32' W 123°00'0 0.0
2013-Aug-25 17:27N 48°32' W 123°00'0 0.0
2013-Aug-25 16:33N 48°32' W 123°00'5 5.2
2013-Aug-25 15:31N 48°27' W 122°57'39 1.9
2013-Aug-24 19:33N 47°57' W 122°21'8 7.9
2013-Aug-24 18:34N 47°49' W 122°23'9 8.8
2013-Aug-24 17:34N 47°41' W 122°25'  

Dump ship's entire track history

sailing weather and tide predictions

Porosity — WDF7776 — position and weather